MDC weather

Sam Ratulangi Airport
Manado-Celebes Island, Sulawesi Utara, Indonesia

Public forecast

Using degrees Celsius for public forecast. Weather courtesy of forecast.io.

Current aviation weather report (METAR) for Sam Ratulangi Airport

Retrieved 2020/02/25 19:30 UTC (1 hour ago):

WAMM 251930Z VRB02KT 8000 SCT020 25/24 Q1009 NOSIG

Aviation forecast (TAF) for Sam Ratulangi Airport

Retrieved 2020/02/25 18:21 UTC (2 hours ago):

TAF TAF WAMM 251700Z 2518/2624 05005KT 8000 SCT020 PROB40 TEMPO 2518/2522 5000 -RA BECMG 2523/2601 32010KT